Java Center, New York
Current Conditions -  °F | °C
As of 7:30 PM on Friday 21 Nov 2014 (Local Time) from KBUF Reporting Station
Light Snow Light Snow  
Wind Chill: 16°   Ceiling: 2900
Heat Index: 25°   Visibility: 9mi
Dew Point: 12°   Wind: 9mph
Humidity: 58%   Direction: 250°WSW
Pressure: 30.43"   Gusts: NA
Location:  42.65°N, 78.39°W
Report Text: KBUF 220030Z 25008KT 9SM -SN FEW025 OVC029 M04/M11 A3043 RMK AO2 P0000 T10391111
Loading
Personal Weather Stations






























Interactive Weather Map New forecast layout! Learn more

10-Day Weather Forecast

Advertisements
Track Severe Weather on mobile